sensor_id;sensor_type;location;lat;lon;timestamp;pressure;altitude;pressure_sealevel;temperature;humidity
84443;BME280;74681;0.000;0.000;2024-03-08T00:01:04;99179.78;;;22.99;59.65
84443;BME280;74681;0.000;0.000;2024-03-08T00:03:31;99187.19;;;22.98;59.29
84443;BME280;74681;0.000;0.000;2024-03-08T00:05:57;99184.44;;;22.98;59.71
84443;BME280;74681;0.000;0.000;2024-03-08T00:08:23;99174.63;;;22.97;59.31
84443;BME280;74681;0.000;0.000;2024-03-08T00:10:48;99184.75;;;22.97;59.30
84443;BME280;74681;0.000;0.000;2024-03-08T00:13:13;99184.75;;;22.97;59.45
84443;BME280;74681;0.000;0.000;2024-03-08T00:15:38;99182.00;;;22.97;59.30
84443;BME280;74681;0.000;0.000;2024-03-08T00:18:04;99180.38;;;22.96;59.38
84443;BME280;74681;0.000;0.000;2024-03-08T00:20:29;99174.88;;;22.96;59.37
84443;BME280;74681;0.000;0.000;2024-03-08T00:22:54;99176.81;;;22.95;59.39
84443;BME280;74681;0.000;0.000;2024-03-08T00:25:22;99182.28;;;22.95;59.57
84443;BME280;74681;0.000;0.000;2024-03-08T00:27:48;99185.03;;;22.95;59.58
84443;BME280;74681;0.000;0.000;2024-03-08T00:30:14;99182.59;;;22.94;59.66
84443;BME280;74681;0.000;0.000;2024-03-08T00:32:39;99177.13;;;22.94;59.30
84443;BME280;74681;0.000;0.000;2024-03-08T00:35:05;99173.56;;;22.93;59.49
84443;BME280;74681;0.000;0.000;2024-03-08T00:37:33;99170.00;;;22.93;59.41
84443;BME280;74681;0.000;0.000;2024-03-08T00:39:59;99170.00;;;22.93;59.34
84443;BME280;74681;0.000;0.000;2024-03-08T00:42:25;99167.56;;;22.91;59.27
84443;BME280;74681;0.000;0.000;2024-03-08T00:44:50;99158.22;;;22.92;59.39
84443;BME280;74681;0.000;0.000;2024-03-08T00:47:16;99165.66;;;22.92;59.60
84443;BME280;74681;0.000;0.000;2024-03-08T00:49:41;99160.16;;;22.92;59.26
84443;BME280;74681;0.000;0.000;2024-03-08T00:52:07;99159.63;;;22.90;59.38
84443;BME280;74681;0.000;0.000;2024-03-08T00:54:33;99165.09;;;22.90;59.49
84443;BME280;74681;0.000;0.000;2024-03-08T00:56:59;99159.63;;;22.90;59.38
84443;BME280;74681;0.000;0.000;2024-03-08T00:59:27;99158.81;;;22.89;59.56
84443;BME280;74681;0.000;0.000;2024-03-08T01:04:38;99162.66;;;22.88;59.51
84443;BME280;74681;0.000;0.000;2024-03-08T01:07:03;99159.13;;;22.88;59.62
84443;BME280;74681;0.000;0.000;2024-03-08T01:09:29;99154.44;;;22.88;59.39
84443;BME280;74681;0.000;0.000;2024-03-08T01:11:54;99154.44;;;22.88;59.40
84443;BME280;74681;0.000;0.000;2024-03-08T01:14:20;99152.81;;;22.87;59.28
84443;BME280;74681;0.000;0.000;2024-03-08T01:16:49;99157.47;;;22.87;59.26
84443;BME280;74681;0.000;0.000;2024-03-08T01:19:14;99159.41;;;22.86;59.54
84443;BME280;74681;0.000;0.000;2024-03-08T01:21:40;99155.03;;;22.85;59.62
84443;BME280;74681;0.000;0.000;2024-03-08T01:24:06;99155.03;;;22.85;59.58
84443;BME280;74681;0.000;0.000;2024-03-08T01:26:31;99156.97;;;22.85;59.36
84443;BME280;74681;0.000;0.000;2024-03-08T01:28:58;99156.97;;;22.85;59.23
84443;BME280;74681;0.000;0.000;2024-03-08T01:31:24;99162.44;;;22.85;59.35
84443;BME280;74681;0.000;0.000;2024-03-08T01:33:49;99155.31;;;22.84;59.39
84443;BME280;74681;0.000;0.000;2024-03-08T01:36:15;99154.53;;;22.83;59.30
84443;BME280;74681;0.000;0.000;2024-03-08T01:38:41;99153.97;;;22.81;59.56
84443;BME280;74681;0.000;0.000;2024-03-08T01:41:06;99155.63;;;22.82;59.23
84443;BME280;74681;0.000;0.000;2024-03-08T01:43:31;99150.16;;;22.82;59.28
84443;BME280;74681;0.000;0.000;2024-03-08T01:45:57;99151.25;;;22.81;59.23
84443;BME280;74681;0.000;0.000;2024-03-08T01:48:24;99146.91;;;22.80;59.19
84443;BME280;74681;0.000;0.000;2024-03-08T01:50:50;99146.91;;;22.80;59.32
84443;BME280;74681;0.000;0.000;2024-03-08T01:53:17;99149.63;;;22.80;59.40
84443;BME280;74681;0.000;0.000;2024-03-08T01:55:43;99149.63;;;22.80;59.19
84443;BME280;74681;0.000;0.000;2024-03-08T01:58:10;99151.56;;;22.80;59.25
84443;BME280;74681;0.000;0.000;2024-03-08T02:00:36;99151.03;;;22.78;59.27
84443;BME280;74681;0.000;0.000;2024-03-08T02:03:05;99156.19;;;22.79;59.47
84443;BME280;74681;0.000;0.000;2024-03-08T02:05:30;99153.47;;;22.79;59.35
84443;BME280;74681;0.000;0.000;2024-03-08T02:07:56;99148.28;;;22.78;59.20
84443;BME280;74681;0.000;0.000;2024-03-08T02:10:22;99147.47;;;22.77;59.26
84443;BME280;74681;0.000;0.000;2024-03-08T02:12:47;99148.28;;;22.78;59.46
84443;BME280;74681;0.000;0.000;2024-03-08T02:15:12;99143.91;;;22.77;59.15
84443;BME280;74681;0.000;0.000;2024-03-08T02:17:38;99152.13;;;22.77;59.32
84443;BME280;74681;0.000;0.000;2024-03-08T02:20:03;99151.31;;;22.76;59.49
84443;BME280;74681;0.000;0.000;2024-03-08T02:22:30;99150.50;;;22.76;59.14
84443;BME280;74681;0.000;0.000;2024-03-08T02:24:55;99149.69;;;22.75;59.15
84443;BME280;74681;0.000;0.000;2024-03-08T02:27:24;99149.69;;;22.75;59.28
84443;BME280;74681;0.000;0.000;2024-03-08T02:29:56;99150.78;;;22.74;59.35
84443;BME280;74681;0.000;0.000;2024-03-08T02:32:22;99150.78;;;22.74;59.23
84443;BME280;74681;0.000;0.000;2024-03-08T02:34:48;99148.88;;;22.75;59.13
84443;BME280;74681;0.000;0.000;2024-03-08T02:37:14;99146.41;;;22.73;59.22
84443;BME280;74681;0.000;0.000;2024-03-08T02:44:31;99139.59;;;22.71;59.15
84443;BME280;74681;0.000;0.000;2024-03-08T02:46:57;99143.16;;;22.71;59.20
84443;BME280;74681;0.000;0.000;2024-03-08T02:49:22;99156.84;;;22.71;59.33
84443;BME280;74681;0.000;0.000;2024-03-08T02:51:48;99149.75;;;22.70;59.27
84443;BME280;74681;0.000;0.000;2024-03-08T02:54:13;99147.00;;;22.70;59.16
84443;BME280;74681;0.000;0.000;2024-03-08T02:56:38;99149.75;;;22.70;59.28
84443;BME280;74681;0.000;0.000;2024-03-08T02:59:03;99151.69;;;22.70;59.28
84443;BME280;74681;0.000;0.000;2024-03-08T03:01:29;99150.88;;;22.69;59.05
84443;BME280;74681;0.000;0.000;2024-03-08T03:03:54;99152.78;;;22.69;59.01
84443;BME280;74681;0.000;0.000;2024-03-08T03:06:20;99158.25;;;22.69;59.09
84443;BME280;74681;0.000;0.000;2024-03-08T03:08:46;99159.34;;;22.68;59.18
84443;BME280;74681;0.000;0.000;2024-03-08T03:11:11;99157.44;;;22.68;59.19
84443;BME280;74681;0.000;0.000;2024-03-08T03:13:38;99158.53;;;22.67;59.28
84443;BME280;74681;0.000;0.000;2024-03-08T03:16:04;99155.78;;;22.67;59.15
84443;BME280;74681;0.000;0.000;2024-03-08T03:18:29;99154.19;;;22.66;59.32
84443;BME280;74681;0.000;0.000;2024-03-08T03:20:55;99159.66;;;22.66;59.10
84443;BME280;74681;0.000;0.000;2024-03-08T03:23:21;99163.50;;;22.65;59.16
84443;BME280;74681;0.000;0.000;2024-03-08T03:25:46;99155.28;;;22.65;59.11
84443;BME280;74681;0.000;0.000;2024-03-08T03:28:11;99162.66;;;22.65;59.10
84443;BME280;74681;0.000;0.000;2024-03-08T03:30:42;99159.13;;;22.64;59.12
84443;BME280;74681;0.000;0.000;2024-03-08T03:33:08;99155.59;;;22.64;59.23
84443;BME280;74681;0.000;0.000;2024-03-08T03:35:34;99152.00;;;22.63;59.03
84443;BME280;74681;0.000;0.000;2024-03-08T03:38:01;99157.47;;;22.63;59.09
84443;BME280;74681;0.000;0.000;2024-03-08T03:40:30;99160.19;;;22.63;59.03
84443;BME280;74681;0.000;0.000;2024-03-08T03:42:56;99152.28;;;22.61;59.21
84443;BME280;74681;0.000;0.000;2024-03-08T03:45:22;99158.56;;;22.62;59.05
84443;BME280;74681;0.000;0.000;2024-03-08T03:47:47;99155.81;;;22.62;59.08
84443;BME280;74681;0.000;0.000;2024-03-08T03:50:12;99161.31;;;22.62;59.27
84443;BME280;74681;0.000;0.000;2024-03-08T03:52:38;99164.34;;;22.60;59.00
84443;BME280;74681;0.000;0.000;2024-03-08T03:55:04;99159.69;;;22.61;58.96
84443;BME280;74681;0.000;0.000;2024-03-08T03:57:33;99168.19;;;22.59;59.17
84443;BME280;74681;0.000;0.000;2024-03-08T03:59:58;99165.44;;;22.59;59.00
84443;BME280;74681;0.000;0.000;2024-03-08T04:02:24;99158.31;;;22.58;59.08
84443;BME280;74681;0.000;0.000;2024-03-08T04:04:51;99169.28;;;22.58;59.18
84443;BME280;74681;0.000;0.000;2024-03-08T04:07:17;99163.78;;;22.58;58.96
84443;BME280;74681;0.000;0.000;2024-03-08T04:09:42;99166.53;;;22.58;59.11
84443;BME280;74681;0.000;0.000;2024-03-08T04:12:07;99158.63;;;22.57;58.92
84443;BME280;74681;0.000;0.000;2024-03-08T04:14:34;99160.53;;;22.56;58.85
84443;BME280;74681;0.000;0.000;2024-03-08T04:17:00;99164.91;;;22.57;58.94
84443;BME280;74681;0.000;0.000;2024-03-08T04:19:25;99164.09;;;22.57;59.14
84443;BME280;74681;0.000;0.000;2024-03-08T04:21:53;99160.53;;;22.56;58.87
84443;BME280;74681;0.000;0.000;2024-03-08T04:24:18;99166.84;;;22.57;59.11
84443;BME280;74681;0.000;0.000;2024-03-08T04:26:43;99167.94;;;22.56;58.91
84443;BME280;74681;0.000;0.000;2024-03-08T04:29:09;99167.13;;;22.55;59.06
84443;BME280;74681;0.000;0.000;2024-03-08T04:31:34;99180.81;;;22.55;58.93
84443;BME280;74681;0.000;0.000;2024-03-08T04:33:59;99172.88;;;22.54;59.16
84443;BME280;74681;0.000;0.000;2024-03-08T04:36:24;99179.19;;;22.54;58.94
84443;BME280;74681;0.000;0.000;2024-03-08T04:38:50;99177.53;;;22.53;58.91
84443;BME280;74681;0.000;0.000;2024-03-08T04:41:16;99180.28;;;22.53;59.02
84443;BME280;74681;0.000;0.000;2024-03-08T04:43:42;99183.84;;;22.54;59.06
84443;BME280;74681;0.000;0.000;2024-03-08T04:46:07;99184.94;;;22.53;59.16
84443;BME280;74681;0.000;0.000;2024-03-08T04:48:33;99185.75;;;22.53;59.07
84443;BME280;74681;0.000;0.000;2024-03-08T04:51:02;99180.59;;;22.52;59.10
84443;BME280;74681;0.000;0.000;2024-03-08T04:53:27;99184.94;;;22.53;59.05
84443;BME280;74681;0.000;0.000;2024-03-08T04:55:54;99188.78;;;22.52;59.06
84443;BME280;74681;0.000;0.000;2024-03-08T04:58:20;99192.63;;;22.51;58.94
84443;BME280;74681;0.000;0.000;2024-03-08T05:00:46;99185.53;;;22.50;59.03
84443;BME280;74681;0.000;0.000;2024-03-08T05:03:11;99185.22;;;22.51;59.14
84443;BME280;74681;0.000;0.000;2024-03-08T05:05:36;99191.53;;;22.52;59.08
84443;BME280;74681;0.000;0.000;2024-03-08T05:08:02;99185.53;;;22.50;58.98
84443;BME280;74681;0.000;0.000;2024-03-08T05:10:28;99188.28;;;22.50;59.09
84443;BME280;74681;0.000;0.000;2024-03-08T05:12:53;99187.97;;;22.51;58.89
84443;BME280;74681;0.000;0.000;2024-03-08T05:15:18;99186.63;;;22.49;58.87
84443;BME280;74681;0.000;0.000;2024-03-08T05:17:45;99190.19;;;22.49;59.03
84443;BME280;74681;0.000;0.000;2024-03-08T05:20:11;99184.72;;;22.49;58.86
84443;BME280;74681;0.000;0.000;2024-03-08T05:22:38;99194.84;;;22.49;59.11
84443;BME280;74681;0.000;0.000;2024-03-08T05:25:05;99184.72;;;22.49;59.00
84443;BME280;74681;0.000;0.000;2024-03-08T05:27:33;99199.50;;;22.48;59.00
84443;BME280;74681;0.000;0.000;2024-03-08T05:29:59;99199.50;;;22.48;58.89
84443;BME280;74681;0.000;0.000;2024-03-08T05:32:24;99202.22;;;22.48;58.92
84443;BME280;74681;0.000;0.000;2024-03-08T05:34:50;99203.31;;;22.47;58.88
84443;BME280;74681;0.000;0.000;2024-03-08T05:37:15;99204.97;;;22.48;58.93
84443;BME280;74681;0.000;0.000;2024-03-08T05:39:41;99200.59;;;22.47;59.09
84443;BME280;74681;0.000;0.000;2024-03-08T05:42:06;99211.53;;;22.47;59.13
84443;BME280;74681;0.000;0.000;2024-03-08T05:44:34;99210.75;;;22.47;58.91
84443;BME280;74681;0.000;0.000;2024-03-08T05:46:59;99213.47;;;22.47;59.07
84443;BME280;74681;0.000;0.000;2024-03-08T05:49:24;99219.75;;;22.47;58.86
84443;BME280;74681;0.000;0.000;2024-03-08T05:51:50;99220.88;;;22.46;59.09
84443;BME280;74681;0.000;0.000;2024-03-08T05:54:16;99222.78;;;22.46;59.14
84443;BME280;74681;0.000;0.000;2024-03-08T05:56:42;99218.13;;;22.46;59.07
84443;BME280;74681;0.000;0.000;2024-03-08T05:59:08;99227.16;;;22.47;58.92
84443;BME280;74681;0.000;0.000;2024-03-08T06:01:34;99229.06;;;22.46;59.03
84443;BME280;74681;0.000;0.000;2024-03-08T06:04:01;99231.81;;;22.46;59.17
84443;BME280;74681;0.000;0.000;2024-03-08T06:06:27;99234.03;;;22.44;59.09
84443;BME280;74681;0.000;0.000;2024-03-08T06:08:52;99232.91;;;22.45;59.08
84443;BME280;74681;0.000;0.000;2024-03-08T06:11:18;99230.16;;;22.45;59.21
84443;BME280;74681;0.000;0.000;2024-03-08T06:13:44;99230.47;;;22.44;59.17
84443;BME280;74681;0.000;0.000;2024-03-08T06:16:10;99234.81;;;22.45;59.14
84443;BME280;74681;0.000;0.000;2024-03-08T06:18:35;99238.69;;;22.44;58.95
84443;BME280;74681;0.000;0.000;2024-03-08T06:21:08;99238.38;;;22.45;59.02
84443;BME280;74681;0.000;0.000;2024-03-08T06:23:36;99236.75;;;22.44;59.12
84443;BME280;74681;0.000;0.000;2024-03-08T06:26:09;99235.13;;;22.43;59.13
84443;BME280;74681;0.000;0.000;2024-03-08T06:28:34;99238.69;;;22.44;59.18
84443;BME280;74681;0.000;0.000;2024-03-08T06:31:00;99241.41;;;22.44;59.02
84443;BME280;74681;0.000;0.000;2024-03-08T06:33:26;99241.41;;;22.44;58.88
84443;BME280;74681;0.000;0.000;2024-03-08T06:35:54;99242.50;;;22.43;59.09
84443;BME280;74681;0.000;0.000;2024-03-08T06:38:22;99237.84;;;22.43;59.17
84443;BME280;74681;0.000;0.000;2024-03-08T06:40:47;99235.13;;;22.43;58.93
84443;BME280;74681;0.000;0.000;2024-03-08T06:43:13;99244.41;;;22.42;59.11
84443;BME280;74681;0.000;0.000;2024-03-08T06:45:41;99243.34;;;22.43;59.19
84443;BME280;74681;0.000;0.000;2024-03-08T06:48:07;99239.78;;;22.43;58.98
84443;BME280;74681;0.000;0.000;2024-03-08T06:50:34;99247.97;;;22.43;59.13
84443;BME280;74681;0.000;0.000;2024-03-08T06:53:01;99242.50;;;22.43;58.97
84443;BME280;74681;0.000;0.000;2024-03-08T06:55:28;99249.06;;;22.42;59.37
84443;BME280;74681;0.000;0.000;2024-03-08T06:57:54;99247.72;;;22.39;58.94
84443;BME280;74681;0.000;0.000;2024-03-08T07:00:19;99252.41;;;22.39;59.52
84443;BME280;74681;0.000;0.000;2024-03-08T07:02:45;99248.03;;;22.38;59.33
84443;BME280;74681;0.000;0.000;2024-03-08T07:05:11;99248.03;;;22.38;59.33
84443;BME280;74681;0.000;0.000;2024-03-08T07:07:36;99256.25;;;22.38;59.51
84443;BME280;74681;0.000;0.000;2024-03-08T07:10:02;99256.25;;;22.38;59.55
84443;BME280;74681;0.000;0.000;2024-03-08T07:12:27;99252.69;;;22.37;59.83
84443;BME280;74681;0.000;0.000;2024-03-08T07:14:53;99258.97;;;22.38;60.03
84443;BME280;74681;0.000;0.000;2024-03-08T07:17:18;99253.78;;;22.36;60.13
84443;BME280;74681;0.000;0.000;2024-03-08T07:19:43;99253.50;;;22.38;60.41
84443;BME280;74681;0.000;0.000;2024-03-08T07:22:09;99257.84;;;22.44;60.42
84443;BME280;74681;0.000;0.000;2024-03-08T07:24:35;99265.16;;;22.48;60.74
84443;BME280;74681;0.000;0.000;2024-03-08T07:27:19;99264.03;;;22.54;60.74
84443;BME280;74681;0.000;0.000;2024-03-08T07:29:44;99263.44;;;22.57;60.97
84443;BME280;74681;0.000;0.000;2024-03-08T07:32:10;99263.72;;;22.56;60.84
84443;BME280;74681;0.000;0.000;2024-03-08T07:34:46;99266.19;;;22.57;61.02
84443;BME280;74681;0.000;0.000;2024-03-08T07:37:13;99262.63;;;22.57;61.13
84443;BME280;74681;0.000;0.000;2024-03-08T07:39:38;99267.00;;;22.58;61.28
84443;BME280;74681;0.000;0.000;2024-03-08T07:42:04;99265.06;;;22.58;61.15
84443;BME280;74681;0.000;0.000;2024-03-08T07:44:29;99266.69;;;22.59;61.29
84443;BME280;74681;0.000;0.000;2024-03-08T07:46:56;99267.53;;;22.60;61.23
84443;BME280;74681;0.000;0.000;2024-03-08T07:49:22;99273.81;;;22.60;61.30
84443;BME280;74681;0.000;0.000;2024-03-08T07:51:47;99269.16;;;22.61;61.01
84443;BME280;74681;0.000;0.000;2024-03-08T07:54:14;99273.50;;;22.62;61.17
84443;BME280;74681;0.000;0.000;2024-03-08T07:56:39;99270.78;;;22.62;61.32
84443;BME280;74681;0.000;0.000;2024-03-08T07:59:04;99278.44;;;22.65;61.31
84443;BME280;74681;0.000;0.000;2024-03-08T08:01:30;99272.41;;;22.63;61.49
84443;BME280;74681;0.000;0.000;2024-03-08T08:03:56;99270.53;;;22.64;60.90
84443;BME280;74681;0.000;0.000;2024-03-08T08:06:21;99285.28;;;22.62;61.04
84443;BME280;74681;0.000;0.000;2024-03-08T08:08:47;99278.75;;;22.58;60.87
84443;BME280;74681;0.000;0.000;2024-03-08T08:11:12;99278.22;;;22.56;60.05
84443;BME280;74681;0.000;0.000;2024-03-08T08:13:37;99282.09;;;22.55;60.18
84443;BME280;74681;0.000;0.000;2024-03-08T08:16:04;99282.34;;;22.54;59.76
84443;BME280;74681;0.000;0.000;2024-03-08T08:18:31;99277.97;;;22.53;59.65
84443;BME280;74681;0.000;0.000;2024-03-08T08:20:58;99277.97;;;22.53;59.72
84443;BME280;74681;0.000;0.000;2024-03-08T08:23:25;99286.19;;;22.53;59.79
84443;BME280;74681;0.000;0.000;2024-03-08T08:25:50;99284.56;;;22.52;59.84
84443;BME280;74681;0.000;0.000;2024-03-08T08:28:16;99277.44;;;22.51;59.53
84443;BME280;74681;0.000;0.000;2024-03-08T08:30:43;99277.44;;;22.51;59.87
84443;BME280;74681;0.000;0.000;2024-03-08T08:33:08;99276.63;;;22.50;59.94
84443;BME280;74681;0.000;0.000;2024-03-08T08:35:33;99278.28;;;22.51;59.63
84443;BME280;74681;0.000;0.000;2024-03-08T08:37:58;99278.56;;;22.50;59.65
84443;BME280;74681;0.000;0.000;2024-03-08T08:40:24;99275.84;;;22.50;59.61
84443;BME280;74681;0.000;0.000;2024-03-08T08:42:50;99276.63;;;22.50;59.79
84443;BME280;74681;0.000;0.000;2024-03-08T08:45:16;99267.63;;;22.50;59.79
84443;BME280;74681;0.000;0.000;2024-03-08T08:47:43;99272.28;;;22.49;59.67
84443;BME280;74681;0.000;0.000;2024-03-08T08:50:08;99278.84;;;22.48;59.67
84443;BME280;74681;0.000;0.000;2024-03-08T08:52:36;99276.94;;;22.49;59.50
84443;BME280;74681;0.000;0.000;2024-03-08T08:55:03;99278.84;;;22.48;59.70
84443;BME280;74681;0.000;0.000;2024-03-08T08:57:29;99279.66;;;22.49;59.47
84443;BME280;74681;0.000;0.000;2024-03-08T08:59:55;99278.84;;;22.48;59.67
84443;BME280;74681;0.000;0.000;2024-03-08T09:02:22;99279.94;;;22.47;59.61
84443;BME280;74681;0.000;0.000;2024-03-08T09:04:47;99281.59;;;22.48;59.52
84443;BME280;74681;0.000;0.000;2024-03-08T09:07:13;99273.69;;;22.47;59.65
84443;BME280;74681;0.000;0.000;2024-03-08T09:09:39;99279.94;;;22.47;59.45
84443;BME280;74681;0.000;0.000;2024-03-08T09:12:04;99274.47;;;22.47;59.74
84443;BME280;74681;0.000;0.000;2024-03-08T09:14:29;99280.75;;;22.48;59.61
84443;BME280;74681;0.000;0.000;2024-03-08T09:16:55;99279.94;;;22.47;59.41
84443;BME280;74681;0.000;0.000;2024-03-08T09:19:20;99274.47;;;22.47;59.51
84443;BME280;74681;0.000;0.000;2024-03-08T09:21:48;99279.16;;;22.47;59.56
84443;BME280;74681;0.000;0.000;2024-03-08T09:24:13;99272.56;;;22.48;59.56
84443;BME280;74681;0.000;0.000;2024-03-08T09:26:38;99274.47;;;22.47;59.26
84443;BME280;74681;0.000;0.000;2024-03-08T09:29:07;99277.19;;;22.47;59.54
84443;BME280;74681;0.000;0.000;2024-03-08T09:31:32;99279.16;;;22.47;59.49
84443;BME280;74681;0.000;0.000;2024-03-08T09:33:57;99278.03;;;22.48;59.57
84443;BME280;74681;0.000;0.000;2024-03-08T09:36:23;99273.69;;;22.47;59.50
84443;BME280;74681;0.000;0.000;2024-03-08T09:38:48;99277.19;;;22.47;59.49
84443;BME280;74681;0.000;0.000;2024-03-08T09:41:15;99277.19;;;22.47;59.37
84443;BME280;74681;0.000;0.000;2024-03-08T09:43:40;99274.47;;;22.47;59.43
84443;BME280;74681;0.000;0.000;2024-03-08T09:46:06;99277.19;;;22.47;59.40
84443;BME280;74681;0.000;0.000;2024-03-08T09:48:32;99273.69;;;22.47;59.23
84443;BME280;74681;0.000;0.000;2024-03-08T09:51:00;99276.41;;;22.47;59.39
84443;BME280;74681;0.000;0.000;2024-03-08T09:53:25;99272.56;;;22.48;59.53
84443;BME280;74681;0.000;0.000;2024-03-08T09:55:51;99267.38;;;22.46;59.32
84443;BME280;74681;0.000;0.000;2024-03-08T09:58:17;99268.47;;;22.45;59.22
84443;BME280;74681;0.000;0.000;2024-03-08T10:00:45;99280.25;;;22.46;59.24
84443;BME280;74681;0.000;0.000;2024-03-08T10:03:10;99273.69;;;22.47;59.27
84443;BME280;74681;0.000;0.000;2024-03-08T10:05:36;99286.53;;;22.46;59.15
84443;BME280;74681;0.000;0.000;2024-03-08T10:08:01;99276.69;;;22.45;59.34
84443;BME280;74681;0.000;0.000;2024-03-08T10:10:27;99278.59;;;22.45;59.30
84443;BME280;74681;0.000;0.000;2024-03-08T10:12:52;99286.81;;;22.45;59.27
84443;BME280;74681;0.000;0.000;2024-03-08T10:15:17;99287.63;;;22.45;59.13
84443;BME280;74681;0.000;0.000;2024-03-08T10:17:43;99279.41;;;22.45;59.17
84443;BME280;74681;0.000;0.000;2024-03-08T10:20:15;99279.41;;;22.45;58.92
84443;BME280;74681;0.000;0.000;2024-03-08T10:22:41;99279.41;;;22.45;59.06
84443;BME280;74681;0.000;0.000;2024-03-08T10:25:10;99282.16;;;22.45;58.84
84443;BME280;74681;0.000;0.000;2024-03-08T10:27:35;99278.59;;;22.45;58.78
84443;BME280;74681;0.000;0.000;2024-03-08T10:30:01;99275.88;;;22.45;58.90
84443;BME280;74681;0.000;0.000;2024-03-08T10:32:26;99280.53;;;22.44;58.78
84443;BME280;74681;0.000;0.000;2024-03-08T10:34:52;99274.25;;;22.44;58.72
84443;BME280;74681;0.000;0.000;2024-03-08T10:37:18;99262.47;;;22.43;58.59
84443;BME280;74681;0.000;0.000;2024-03-08T10:39:50;99268.78;;;22.44;58.73
84443;BME280;74681;0.000;0.000;2024-03-08T10:42:20;99266.03;;;22.44;58.66
84443;BME280;74681;0.000;0.000;2024-03-08T10:45:12;99264.41;;;22.43;58.87
84443;BME280;74681;0.000;0.000;2024-03-08T10:47:33;99254.53;;;22.42;58.59
84443;BME280;74681;0.000;0.000;2024-03-08T10:50:24;99267.97;;;22.43;58.67
84443;BME280;74681;0.000;0.000;2024-03-08T10:52:50;99259.22;;;22.41;58.70
84443;BME280;74681;0.000;0.000;2024-03-08T10:55:17;99264.69;;;22.41;58.63
84443;BME280;74681;0.000;0.000;2024-03-08T10:57:42;99261.97;;;22.41;58.54
84443;BME280;74681;0.000;0.000;2024-03-08T11:00:08;99271.78;;;22.42;58.56
84443;BME280;74681;0.000;0.000;2024-03-08T11:02:37;99270.44;;;22.40;58.38
84443;BME280;74681;0.000;0.000;2024-03-08T11:05:03;99268.22;;;22.42;58.40
84443;BME280;74681;0.000;0.000;2024-03-08T11:07:31;99261.97;;;22.41;58.32
84443;BME280;74681;0.000;0.000;2024-03-08T11:09:59;99263.06;;;22.40;58.38
84443;BME280;74681;0.000;0.000;2024-03-08T11:12:29;99262.22;;;22.40;58.15
84443;BME280;74681;0.000;0.000;2024-03-08T11:15:10;99258.41;;;22.41;58.25
84443;BME280;74681;0.000;0.000;2024-03-08T11:20:13;99261.16;;;22.41;58.38
84443;BME280;74681;0.000;0.000;2024-03-08T11:25:31;99252.13;;;22.40;58.10
84443;BME280;74681;0.000;0.000;2024-03-08T11:28:10;99251.81;;;22.42;58.11
84443;BME280;74681;0.000;0.000;2024-03-08T11:30:41;99245.53;;;22.41;58.07
84443;BME280;74681;0.000;0.000;2024-03-08T11:33:09;99243.91;;;22.40;58.07
84443;BME280;74681;0.000;0.000;2024-03-08T11:35:37;99246.34;;;22.42;58.09
84443;BME280;74681;0.000;0.000;2024-03-08T11:38:03;99245.53;;;22.41;58.09
84443;BME280;74681;0.000;0.000;2024-03-08T11:40:31;99243.59;;;22.42;58.20
84443;BME280;74681;0.000;0.000;2024-03-08T11:42:58;99242.81;;;22.41;58.39
84443;BME280;74681;0.000;0.000;2024-03-08T11:45:24;99245.53;;;22.41;58.32
84443;BME280;74681;0.000;0.000;2024-03-08T11:47:50;99237.34;;;22.41;58.27
84443;BME280;74681;0.000;0.000;2024-03-08T11:50:15;99244.41;;;22.42;58.30
84443;BME280;74681;0.000;0.000;2024-03-08T11:52:43;99242.50;;;22.43;58.14
84443;BME280;74681;0.000;0.000;2024-03-08T11:55:09;99246.06;;;22.43;58.18
84443;BME280;74681;0.000;0.000;2024-03-08T11:57:38;99234.31;;;22.43;58.32
84443;BME280;74681;0.000;0.000;2024-03-08T12:00:04;99234.31;;;22.43;58.10
84443;BME280;74681;0.000;0.000;2024-03-08T12:02:33;99236.75;;;22.44;58.36
84443;BME280;74681;0.000;0.000;2024-03-08T12:05:03;99237.56;;;22.45;58.15
84443;BME280;74681;0.000;0.000;2024-03-08T12:07:32;99238.69;;;22.44;58.10
84443;BME280;74681;0.000;0.000;2024-03-08T12:12:46;99237.56;;;22.45;58.12
84443;BME280;74681;0.000;0.000;2024-03-08T12:15:12;99234.81;;;22.45;58.05
84443;BME280;74681;0.000;0.000;2024-03-08T12:17:38;99231.81;;;22.46;58.40
84443;BME280;74681;0.000;0.000;2024-03-08T12:22:45;99240.84;;;22.47;58.41
84443;BME280;74681;0.000;0.000;2024-03-08T12:25:11;99235.38;;;22.47;58.16
84443;BME280;74681;0.000;0.000;2024-03-08T12:27:40;99231.50;;;22.48;58.21
84443;BME280;74681;0.000;0.000;2024-03-08T12:30:16;99229.59;;;22.48;58.26
84443;BME280;74681;0.000;0.000;2024-03-08T12:32:46;99228.78;;;22.48;58.20
84443;BME280;74681;0.000;0.000;2024-03-08T12:35:12;99228.78;;;22.48;58.02
84443;BME280;74681;0.000;0.000;2024-03-08T12:37:38;99226.03;;;22.48;58.10
84443;BME280;74681;0.000;0.000;2024-03-08T12:40:06;99224.13;;;22.48;58.03
84443;BME280;74681;0.000;0.000;2024-03-08T12:42:32;99229.59;;;22.48;57.72
84443;BME280;74681;0.000;0.000;2024-03-08T12:44:57;99222.22;;;22.49;57.80
84443;BME280;74681;0.000;0.000;2024-03-08T12:47:24;99223.84;;;22.50;57.87
84443;BME280;74681;0.000;0.000;2024-03-08T12:49:50;99224.63;;;22.50;57.63
84443;BME280;74681;0.000;0.000;2024-03-08T12:52:15;99223.84;;;22.50;57.50
84443;BME280;74681;0.000;0.000;2024-03-08T12:54:43;99213.69;;;22.50;57.44
84443;BME280;74681;0.000;0.000;2024-03-08T12:57:08;99225.47;;;22.51;57.66
84443;BME280;74681;0.000;0.000;2024-03-08T12:59:34;99220.81;;;22.51;57.83
84443;BME280;74681;0.000;0.000;2024-03-08T13:01:59;99211.78;;;22.51;57.73
84443;BME280;74681;0.000;0.000;2024-03-08T13:04:25;99215.34;;;22.51;57.72
84443;BME280;74681;0.000;0.000;2024-03-08T13:06:50;99212.28;;;22.53;57.85
84443;BME280;74681;0.000;0.000;2024-03-08T13:09:16;99213.94;;;22.54;57.64
84443;BME280;74681;0.000;0.000;2024-03-08T13:11:44;99209.56;;;22.53;57.59
84443;BME280;74681;0.000;0.000;2024-03-08T13:14:09;99207.66;;;22.53;57.69
84443;BME280;74681;0.000;0.000;2024-03-08T13:16:35;99209.56;;;22.53;57.91
84443;BME280;74681;0.000;0.000;2024-03-08T13:19:01;99206.56;;;22.54;57.88
84443;BME280;74681;0.000;0.000;2024-03-08T13:21:26;99203.00;;;22.54;58.30
84443;BME280;74681;0.000;0.000;2024-03-08T13:23:51;99200.25;;;22.54;58.23